sensor_id;sensor_type;location;lat;lon;timestamp;P1;durP1;ratioP1;P2;durP2;ratioP2
7767;SDS011;3928;42.626;23.382;2022-11-09T00:00:39;46.13;;;30.33;;
7767;SDS011;3928;42.626;23.382;2022-11-09T00:03:06;44.67;;;30.43;;
7767;SDS011;3928;42.626;23.382;2022-11-09T00:05:35;47.77;;;30.67;;
7767;SDS011;3928;42.626;23.382;2022-11-09T00:08:03;42.23;;;30.67;;
7767;SDS011;3928;42.626;23.382;2022-11-09T00:10:31;42.33;;;30.90;;
7767;SDS011;3928;42.626;23.382;2022-11-09T00:12:58;42.13;;;30.77;;
7767;SDS011;3928;42.626;23.382;2022-11-09T00:15:25;45.90;;;28.67;;
7767;SDS011;3928;42.626;23.382;2022-11-09T00:17:52;42.77;;;29.10;;
7767;SDS011;3928;42.626;23.382;2022-11-09T00:20:19;44.47;;;30.10;;
7767;SDS011;3928;42.626;23.382;2022-11-09T00:22:49;43.07;;;30.00;;
7767;SDS011;3928;42.626;23.382;2022-11-09T00:25:16;41.50;;;30.20;;
7767;SDS011;3928;42.626;23.382;2022-11-09T00:27:43;41.37;;;29.60;;
7767;SDS011;3928;42.626;23.382;2022-11-09T00:30:10;43.63;;;30.53;;
7767;SDS011;3928;42.626;23.382;2022-11-09T00:32:37;43.50;;;30.20;;
7767;SDS011;3928;42.626;23.382;2022-11-09T00:35:04;40.47;;;29.30;;
7767;SDS011;3928;42.626;23.382;2022-11-09T00:37:32;41.63;;;30.33;;
7767;SDS011;3928;42.626;23.382;2022-11-09T00:40:00;39.87;;;29.13;;
7767;SDS011;3928;42.626;23.382;2022-11-09T00:42:27;41.13;;;30.53;;
7767;SDS011;3928;42.626;23.382;2022-11-09T00:44:54;45.30;;;30.77;;
7767;SDS011;3928;42.626;23.382;2022-11-09T00:47:21;43.00;;;29.37;;
7767;SDS011;3928;42.626;23.382;2022-11-09T00:49:47;42.10;;;29.80;;
7767;SDS011;3928;42.626;23.382;2022-11-09T00:52:14;40.60;;;29.73;;
7767;SDS011;3928;42.626;23.382;2022-11-09T00:54:41;44.43;;;30.40;;
7767;SDS011;3928;42.626;23.382;2022-11-09T00:57:10;42.63;;;29.13;;
7767;SDS011;3928;42.626;23.382;2022-11-09T00:59:37;37.40;;;28.00;;
7767;SDS011;3928;42.626;23.382;2022-11-09T01:02:04;39.87;;;28.73;;
7767;SDS011;3928;42.626;23.382;2022-11-09T01:04:31;39.50;;;27.80;;
7767;SDS011;3928;42.626;23.382;2022-11-09T01:06:58;41.30;;;29.33;;
7767;SDS011;3928;42.626;23.382;2022-11-09T01:09:25;41.03;;;28.27;;
7767;SDS011;3928;42.626;23.382;2022-11-09T01:11:51;38.10;;;29.20;;
7767;SDS011;3928;42.626;23.382;2022-11-09T01:14:20;43.60;;;30.30;;
7767;SDS011;3928;42.626;23.382;2022-11-09T01:16:47;41.83;;;29.23;;
7767;SDS011;3928;42.626;23.382;2022-11-09T01:19:13;42.00;;;29.43;;
7767;SDS011;3928;42.626;23.382;2022-11-09T01:21:40;38.80;;;28.43;;
7767;SDS011;3928;42.626;23.382;2022-11-09T01:24:07;38.50;;;27.87;;
7767;SDS011;3928;42.626;23.382;2022-11-09T01:26:35;39.07;;;27.97;;
7767;SDS011;3928;42.626;23.382;2022-11-09T01:29:02;41.80;;;29.33;;
7767;SDS011;3928;42.626;23.382;2022-11-09T01:31:30;40.77;;;28.03;;
7767;SDS011;3928;42.626;23.382;2022-11-09T01:33:57;42.00;;;28.33;;
7767;SDS011;3928;42.626;23.382;2022-11-09T01:36:25;37.93;;;28.43;;
7767;SDS011;3928;42.626;23.382;2022-11-09T01:38:52;40.40;;;28.40;;
7767;SDS011;3928;42.626;23.382;2022-11-09T01:41:19;36.23;;;27.30;;
7767;SDS011;3928;42.626;23.382;2022-11-09T01:44:04;43.50;;;27.97;;
7767;SDS011;3928;42.626;23.382;2022-11-09T01:46:35;38.87;;;27.47;;
7767;SDS011;3928;42.626;23.382;2022-11-09T01:49:08;37.60;;;26.67;;
7767;SDS011;3928;42.626;23.382;2022-11-09T01:51:40;38.37;;;27.07;;
7767;SDS011;3928;42.626;23.382;2022-11-09T01:54:09;40.07;;;28.47;;
7767;SDS011;3928;42.626;23.382;2022-11-09T01:56:39;39.60;;;28.27;;
7767;SDS011;3928;42.626;23.382;2022-11-09T01:59:07;41.77;;;28.13;;
7767;SDS011;3928;42.626;23.382;2022-11-09T02:01:39;40.27;;;27.70;;
7767;SDS011;3928;42.626;23.382;2022-11-09T02:04:08;40.57;;;28.50;;
7767;SDS011;3928;42.626;23.382;2022-11-09T02:06:37;40.07;;;29.20;;
7767;SDS011;3928;42.626;23.382;2022-11-09T02:09:06;40.83;;;27.43;;
7767;SDS011;3928;42.626;23.382;2022-11-09T02:11:36;40.73;;;27.70;;
7767;SDS011;3928;42.626;23.382;2022-11-09T02:14:03;40.77;;;27.53;;
7767;SDS011;3928;42.626;23.382;2022-11-09T02:16:32;37.47;;;27.40;;
7767;SDS011;3928;42.626;23.382;2022-11-09T02:19:00;39.17;;;28.17;;
7767;SDS011;3928;42.626;23.382;2022-11-09T02:21:29;38.30;;;26.00;;
7767;SDS011;3928;42.626;23.382;2022-11-09T02:23:57;41.80;;;27.67;;
7767;SDS011;3928;42.626;23.382;2022-11-09T02:26:25;39.47;;;27.33;;
7767;SDS011;3928;42.626;23.382;2022-11-09T02:28:55;36.80;;;27.00;;
7767;SDS011;3928;42.626;23.382;2022-11-09T02:31:24;36.63;;;27.30;;
7767;SDS011;3928;42.626;23.382;2022-11-09T02:33:59;45.10;;;28.23;;
7767;SDS011;3928;42.626;23.382;2022-11-09T02:36:33;38.17;;;27.13;;
7767;SDS011;3928;42.626;23.382;2022-11-09T02:39:00;36.80;;;26.67;;
7767;SDS011;3928;42.626;23.382;2022-11-09T02:41:28;40.00;;;27.27;;
7767;SDS011;3928;42.626;23.382;2022-11-09T02:43:57;33.40;;;25.70;;
7767;SDS011;3928;42.626;23.382;2022-11-09T02:46:29;35.90;;;25.63;;
7767;SDS011;3928;42.626;23.382;2022-11-09T02:48:57;38.57;;;27.27;;
7767;SDS011;3928;42.626;23.382;2022-11-09T02:51:24;34.30;;;25.43;;
7767;SDS011;3928;42.626;23.382;2022-11-09T02:53:52;35.37;;;27.23;;
7767;SDS011;3928;42.626;23.382;2022-11-09T02:56:19;38.33;;;26.63;;
7767;SDS011;3928;42.626;23.382;2022-11-09T02:58:45;39.43;;;26.77;;
7767;SDS011;3928;42.626;23.382;2022-11-09T03:01:12;35.20;;;25.53;;
7767;SDS011;3928;42.626;23.382;2022-11-09T03:03:39;33.37;;;25.30;;
7767;SDS011;3928;42.626;23.382;2022-11-09T03:06:06;37.13;;;26.27;;
7767;SDS011;3928;42.626;23.382;2022-11-09T03:08:33;38.03;;;27.47;;
7767;SDS011;3928;42.626;23.382;2022-11-09T03:11:02;37.27;;;27.03;;
7767;SDS011;3928;42.626;23.382;2022-11-09T03:13:30;38.70;;;27.73;;
7767;SDS011;3928;42.626;23.382;2022-11-09T03:15:57;39.53;;;28.07;;
7767;SDS011;3928;42.626;23.382;2022-11-09T03:18:23;40.20;;;26.80;;
7767;SDS011;3928;42.626;23.382;2022-11-09T03:20:51;36.67;;;26.97;;
7767;SDS011;3928;42.626;23.382;2022-11-09T03:23:18;41.70;;;27.33;;
7767;SDS011;3928;42.626;23.382;2022-11-09T03:25:45;46.47;;;28.90;;
7767;SDS011;3928;42.626;23.382;2022-11-09T03:28:13;37.27;;;25.67;;
7767;SDS011;3928;42.626;23.382;2022-11-09T03:30:40;31.07;;;24.10;;
7767;SDS011;3928;42.626;23.382;2022-11-09T03:33:06;36.00;;;25.07;;
7767;SDS011;3928;42.626;23.382;2022-11-09T03:35:34;34.13;;;24.87;;
7767;SDS011;3928;42.626;23.382;2022-11-09T03:38:01;34.70;;;25.60;;
7767;SDS011;3928;42.626;23.382;2022-11-09T03:40:28;34.37;;;25.13;;
7767;SDS011;3928;42.626;23.382;2022-11-09T03:42:55;33.60;;;24.53;;
7767;SDS011;3928;42.626;23.382;2022-11-09T03:45:24;30.47;;;23.03;;
7767;SDS011;3928;42.626;23.382;2022-11-09T03:47:51;33.40;;;23.47;;
7767;SDS011;3928;42.626;23.382;2022-11-09T03:50:21;34.90;;;24.10;;
7767;SDS011;3928;42.626;23.382;2022-11-09T03:52:48;33.37;;;23.23;;
7767;SDS011;3928;42.626;23.382;2022-11-09T03:55:15;33.13;;;23.67;;
7767;SDS011;3928;42.626;23.382;2022-11-09T03:57:42;32.80;;;22.23;;
7767;SDS011;3928;42.626;23.382;2022-11-09T04:00:11;27.87;;;21.67;;
7767;SDS011;3928;42.626;23.382;2022-11-09T04:02:41;33.77;;;23.13;;
7767;SDS011;3928;42.626;23.382;2022-11-09T04:05:09;30.03;;;22.67;;
7767;SDS011;3928;42.626;23.382;2022-11-09T04:07:36;31.23;;;23.33;;
7767;SDS011;3928;42.626;23.382;2022-11-09T04:10:04;30.43;;;22.67;;
7767;SDS011;3928;42.626;23.382;2022-11-09T04:12:31;28.33;;;21.40;;
7767;SDS011;3928;42.626;23.382;2022-11-09T04:14:58;29.40;;;20.87;;
7767;SDS011;3928;42.626;23.382;2022-11-09T04:17:25;30.63;;;22.17;;
7767;SDS011;3928;42.626;23.382;2022-11-09T04:19:53;29.03;;;21.87;;
7767;SDS011;3928;42.626;23.382;2022-11-09T04:22:20;29.13;;;21.13;;
7767;SDS011;3928;42.626;23.382;2022-11-09T04:24:47;26.37;;;20.40;;
7767;SDS011;3928;42.626;23.382;2022-11-09T04:27:13;28.60;;;21.10;;
7767;SDS011;3928;42.626;23.382;2022-11-09T04:29:40;31.43;;;22.03;;
7767;SDS011;3928;42.626;23.382;2022-11-09T04:32:07;27.73;;;20.83;;
7767;SDS011;3928;42.626;23.382;2022-11-09T04:34:34;30.90;;;20.43;;
7767;SDS011;3928;42.626;23.382;2022-11-09T04:37:02;28.27;;;21.30;;
7767;SDS011;3928;42.626;23.382;2022-11-09T04:39:29;28.77;;;20.93;;
7767;SDS011;3928;42.626;23.382;2022-11-09T04:41:56;27.43;;;20.63;;
7767;SDS011;3928;42.626;23.382;2022-11-09T04:44:23;27.13;;;20.43;;
7767;SDS011;3928;42.626;23.382;2022-11-09T04:46:49;30.83;;;21.40;;
7767;SDS011;3928;42.626;23.382;2022-11-09T04:49:16;27.60;;;20.90;;
7767;SDS011;3928;42.626;23.382;2022-11-09T04:51:43;29.57;;;19.40;;
7767;SDS011;3928;42.626;23.382;2022-11-09T04:54:11;29.10;;;20.43;;
7767;SDS011;3928;42.626;23.382;2022-11-09T04:56:38;29.20;;;19.00;;
7767;SDS011;3928;42.626;23.382;2022-11-09T04:59:05;27.43;;;19.27;;
7767;SDS011;3928;42.626;23.382;2022-11-09T05:01:32;28.67;;;19.87;;
7767;SDS011;3928;42.626;23.382;2022-11-09T05:03:59;24.30;;;19.47;;
7767;SDS011;3928;42.626;23.382;2022-11-09T05:06:26;25.30;;;18.73;;
7767;SDS011;3928;42.626;23.382;2022-11-09T05:08:59;26.13;;;20.20;;
7767;SDS011;3928;42.626;23.382;2022-11-09T05:11:28;28.40;;;20.90;;
7767;SDS011;3928;42.626;23.382;2022-11-09T05:13:56;23.70;;;19.30;;
7767;SDS011;3928;42.626;23.382;2022-11-09T05:16:23;26.53;;;20.00;;
7767;SDS011;3928;42.626;23.382;2022-11-09T05:18:50;24.93;;;18.40;;
7767;SDS011;3928;42.626;23.382;2022-11-09T05:21:17;24.70;;;18.17;;
7767;SDS011;3928;42.626;23.382;2022-11-09T05:23:44;27.50;;;21.03;;
7767;SDS011;3928;42.626;23.382;2022-11-09T05:26:26;27.30;;;19.30;;
7767;SDS011;3928;42.626;23.382;2022-11-09T05:28:56;25.07;;;17.53;;
7767;SDS011;3928;42.626;23.382;2022-11-09T05:31:24;24.37;;;17.90;;
7767;SDS011;3928;42.626;23.382;2022-11-09T05:33:51;22.13;;;17.27;;
7767;SDS011;3928;42.626;23.382;2022-11-09T05:36:19;28.73;;;19.60;;
7767;SDS011;3928;42.626;23.382;2022-11-09T05:38:46;25.13;;;19.37;;
7767;SDS011;3928;42.626;23.382;2022-11-09T05:41:14;26.47;;;20.73;;
7767;SDS011;3928;42.626;23.382;2022-11-09T05:43:43;28.27;;;19.60;;
7767;SDS011;3928;42.626;23.382;2022-11-09T05:46:10;28.93;;;19.37;;
7767;SDS011;3928;42.626;23.382;2022-11-09T05:48:38;29.00;;;20.23;;
7767;SDS011;3928;42.626;23.382;2022-11-09T05:51:06;30.07;;;21.20;;
7767;SDS011;3928;42.626;23.382;2022-11-09T05:53:34;31.70;;;21.83;;
7767;SDS011;3928;42.626;23.382;2022-11-09T05:56:01;31.60;;;21.57;;
7767;SDS011;3928;42.626;23.382;2022-11-09T05:58:29;24.30;;;19.83;;
7767;SDS011;3928;42.626;23.382;2022-11-09T06:01:01;27.97;;;20.37;;
7767;SDS011;3928;42.626;23.382;2022-11-09T06:03:29;25.87;;;19.13;;
7767;SDS011;3928;42.626;23.382;2022-11-09T06:05:58;32.43;;;19.67;;
7767;SDS011;3928;42.626;23.382;2022-11-09T06:08:27;28.83;;;19.77;;
7767;SDS011;3928;42.626;23.382;2022-11-09T06:10:57;28.80;;;20.03;;
7767;SDS011;3928;42.626;23.382;2022-11-09T06:13:25;26.27;;;20.40;;
7767;SDS011;3928;42.626;23.382;2022-11-09T06:15:52;33.07;;;22.33;;
7767;SDS011;3928;42.626;23.382;2022-11-09T06:18:22;35.67;;;23.00;;
7767;SDS011;3928;42.626;23.382;2022-11-09T06:20:50;36.20;;;22.77;;
7767;SDS011;3928;42.626;23.382;2022-11-09T06:23:18;35.13;;;22.47;;
7767;SDS011;3928;42.626;23.382;2022-11-09T06:25:49;30.07;;;23.63;;
7767;SDS011;3928;42.626;23.382;2022-11-09T06:28:17;33.77;;;22.97;;
7767;SDS011;3928;42.626;23.382;2022-11-09T06:30:44;37.90;;;26.30;;
7767;SDS011;3928;42.626;23.382;2022-11-09T06:33:11;37.57;;;24.93;;
7767;SDS011;3928;42.626;23.382;2022-11-09T06:35:39;34.83;;;23.50;;
7767;SDS011;3928;42.626;23.382;2022-11-09T06:38:07;32.90;;;22.97;;
7767;SDS011;3928;42.626;23.382;2022-11-09T06:40:35;32.33;;;23.77;;
7767;SDS011;3928;42.626;23.382;2022-11-09T06:43:04;53.05;;;35.17;;
7767;SDS011;3928;42.626;23.382;2022-11-09T06:45:31;33.20;;;23.67;;
7767;SDS011;3928;42.626;23.382;2022-11-09T06:47:59;30.90;;;22.03;;
7767;SDS011;3928;42.626;23.382;2022-11-09T06:50:28;35.70;;;23.58;;
7767;SDS011;3928;42.626;23.382;2022-11-09T06:52:57;35.47;;;24.00;;
7767;SDS011;3928;42.626;23.382;2022-11-09T06:55:25;34.20;;;23.83;;
7767;SDS011;3928;42.626;23.382;2022-11-09T06:57:53;34.50;;;25.08;;
7767;SDS011;3928;42.626;23.382;2022-11-09T07:00:20;35.63;;;24.88;;
7767;SDS011;3928;42.626;23.382;2022-11-09T07:02:47;40.03;;;26.17;;
7767;SDS011;3928;42.626;23.382;2022-11-09T07:05:14;37.00;;;25.80;;
7767;SDS011;3928;42.626;23.382;2022-11-09T07:07:41;77.13;;;52.45;;
7767;SDS011;3928;42.626;23.382;2022-11-09T07:10:10;39.55;;;29.05;;
7767;SDS011;3928;42.626;23.382;2022-11-09T07:12:37;43.33;;;30.88;;
7767;SDS011;3928;42.626;23.382;2022-11-09T07:15:04;39.08;;;28.08;;
7767;SDS011;3928;42.626;23.382;2022-11-09T07:17:32;41.10;;;30.23;;
7767;SDS011;3928;42.626;23.382;2022-11-09T07:20:01;46.22;;;31.85;;
7767;SDS011;3928;42.626;23.382;2022-11-09T07:22:28;48.75;;;31.65;;
7767;SDS011;3928;42.626;23.382;2022-11-09T07:24:55;45.67;;;29.95;;
7767;SDS011;3928;42.626;23.382;2022-11-09T07:27:23;38.15;;;28.77;;
7767;SDS011;3928;42.626;23.382;2022-11-09T07:29:50;40.25;;;29.92;;
7767;SDS011;3928;42.626;23.382;2022-11-09T07:32:16;40.70;;;29.90;;
7767;SDS011;3928;42.626;23.382;2022-11-09T07:34:43;39.88;;;28.88;;
7767;SDS011;3928;42.626;23.382;2022-11-09T07:37:10;44.13;;;31.15;;
7767;SDS011;3928;42.626;23.382;2022-11-09T07:39:37;51.10;;;34.83;;
7767;SDS011;3928;42.626;23.382;2022-11-09T07:42:04;51.17;;;34.53;;
7767;SDS011;3928;42.626;23.382;2022-11-09T07:44:32;55.33;;;36.45;;
7767;SDS011;3928;42.626;23.382;2022-11-09T07:46:59;53.28;;;35.58;;
7767;SDS011;3928;42.626;23.382;2022-11-09T07:49:26;51.28;;;35.72;;
7767;SDS011;3928;42.626;23.382;2022-11-09T07:51:53;53.78;;;36.35;;
7767;SDS011;3928;42.626;23.382;2022-11-09T07:54:20;47.20;;;35.92;;
7767;SDS011;3928;42.626;23.382;2022-11-09T07:56:46;48.90;;;33.90;;
7767;SDS011;3928;42.626;23.382;2022-11-09T07:59:13;49.03;;;34.30;;
7767;SDS011;3928;42.626;23.382;2022-11-09T08:01:41;50.00;;;34.00;;
7767;SDS011;3928;42.626;23.382;2022-11-09T08:04:08;48.67;;;33.40;;
7767;SDS011;3928;42.626;23.382;2022-11-09T08:06:35;51.20;;;35.53;;
7767;SDS011;3928;42.626;23.382;2022-11-09T08:09:02;73.65;;;45.15;;
7767;SDS011;3928;42.626;23.382;2022-11-09T08:11:29;46.20;;;33.28;;
7767;SDS011;3928;42.626;23.382;2022-11-09T08:13:56;41.13;;;30.45;;
7767;SDS011;3928;42.626;23.382;2022-11-09T08:16:22;41.33;;;30.50;;
7767;SDS011;3928;42.626;23.382;2022-11-09T08:18:51;52.80;;;33.15;;
7767;SDS011;3928;42.626;23.382;2022-11-09T08:21:18;39.67;;;30.38;;
7767;SDS011;3928;42.626;23.382;2022-11-09T08:23:44;45.58;;;32.25;;
7767;SDS011;3928;42.626;23.382;2022-11-09T08:26:11;90.43;;;64.93;;
7767;SDS011;3928;42.626;23.382;2022-11-09T08:28:38;60.50;;;44.78;;
7767;SDS011;3928;42.626;23.382;2022-11-09T08:31:06;56.38;;;40.90;;
7767;SDS011;3928;42.626;23.382;2022-11-09T08:33:34;88.70;;;63.53;;
7767;SDS011;3928;42.626;23.382;2022-11-09T08:36:08;64.53;;;35.00;;
7767;SDS011;3928;42.626;23.382;2022-11-09T08:38:35;45.72;;;32.35;;
7767;SDS011;3928;42.626;23.382;2022-11-09T08:41:02;43.85;;;30.70;;
7767;SDS011;3928;42.626;23.382;2022-11-09T08:43:29;42.35;;;30.95;;
7767;SDS011;3928;42.626;23.382;2022-11-09T08:45:56;45.92;;;32.08;;
7767;SDS011;3928;42.626;23.382;2022-11-09T08:48:23;41.55;;;31.08;;
7767;SDS011;3928;42.626;23.382;2022-11-09T08:50:50;54.45;;;33.53;;
7767;SDS011;3928;42.626;23.382;2022-11-09T08:53:19;50.50;;;32.50;;
7767;SDS011;3928;42.626;23.382;2022-11-09T08:55:46;43.67;;;31.10;;
7767;SDS011;3928;42.626;23.382;2022-11-09T08:58:13;45.70;;;30.95;;
7767;SDS011;3928;42.626;23.382;2022-11-09T09:00:40;42.45;;;30.58;;
7767;SDS011;3928;42.626;23.382;2022-11-09T09:03:07;53.00;;;36.60;;
7767;SDS011;3928;42.626;23.382;2022-11-09T09:05:34;47.35;;;33.05;;
7767;SDS011;3928;42.626;23.382;2022-11-09T09:08:02;47.28;;;32.00;;
7767;SDS011;3928;42.626;23.382;2022-11-09T09:10:32;48.13;;;32.50;;
7767;SDS011;3928;42.626;23.382;2022-11-09T09:13:00;45.03;;;30.38;;
7767;SDS011;3928;42.626;23.382;2022-11-09T09:15:27;38.30;;;30.25;;
7767;SDS011;3928;42.626;23.382;2022-11-09T09:17:54;50.20;;;31.85;;
7767;SDS011;3928;42.626;23.382;2022-11-09T09:20:21;47.45;;;31.50;;
7767;SDS011;3928;42.626;23.382;2022-11-09T09:22:47;47.72;;;32.45;;
7767;SDS011;3928;42.626;23.382;2022-11-09T09:25:14;48.28;;;33.17;;
7767;SDS011;3928;42.626;23.382;2022-11-09T09:27:43;54.40;;;33.78;;
7767;SDS011;3928;42.626;23.382;2022-11-09T09:30:11;40.88;;;31.20;;
7767;SDS011;3928;42.626;23.382;2022-11-09T09:32:38;42.42;;;31.38;;
7767;SDS011;3928;42.626;23.382;2022-11-09T09:35:05;50.92;;;32.55;;
7767;SDS011;3928;42.626;23.382;2022-11-09T09:37:32;46.90;;;33.70;;
7767;SDS011;3928;42.626;23.382;2022-11-09T09:39:59;50.70;;;34.47;;
7767;SDS011;3928;42.626;23.382;2022-11-09T09:42:28;50.92;;;33.10;;
7767;SDS011;3928;42.626;23.382;2022-11-09T09:45:02;43.88;;;32.35;;
7767;SDS011;3928;42.626;23.382;2022-11-09T09:47:41;41.20;;;31.80;;
7767;SDS011;3928;42.626;23.382;2022-11-09T09:50:15;46.90;;;29.90;;
7767;SDS011;3928;42.626;23.382;2022-11-09T09:52:46;47.45;;;31.10;;
7767;SDS011;3928;42.626;23.382;2022-11-09T09:55:22;46.95;;;30.38;;
7767;SDS011;3928;42.626;23.382;2022-11-09T09:57:52;44.97;;;31.60;;
7767;SDS011;3928;42.626;23.382;2022-11-09T10:00:22;45.78;;;31.00;;
7767;SDS011;3928;42.626;23.382;2022-11-09T10:02:51;43.83;;;32.00;;
7767;SDS011;3928;42.626;23.382;2022-11-09T10:05:19;45.55;;;30.77;;
7767;SDS011;3928;42.626;23.382;2022-11-09T10:07:53;44.97;;;32.45;;
7767;SDS011;3928;42.626;23.382;2022-11-09T10:10:33;43.38;;;29.58;;
7767;SDS011;3928;42.626;23.382;2022-11-09T10:16:13;43.58;;;30.00;;
7767;SDS011;3928;42.626;23.382;2022-11-09T10:18:51;39.90;;;26.20;;
7767;SDS011;3928;42.626;23.382;2022-11-09T10:21:34;36.13;;;23.95;;
7767;SDS011;3928;42.626;23.382;2022-11-09T10:24:12;35.25;;;26.35;;
7767;SDS011;3928;42.626;23.382;2022-11-09T10:26:49;34.03;;;25.27;;
7767;SDS011;3928;42.626;23.382;2022-11-09T10:29:19;34.75;;;26.92;;
7767;SDS011;3928;42.626;23.382;2022-11-09T10:31:51;35.67;;;25.70;;
7767;SDS011;3928;42.626;23.382;2022-11-09T10:34:20;31.20;;;23.65;;
7767;SDS011;3928;42.626;23.382;2022-11-09T10:36:55;31.75;;;24.70;;
7767;SDS011;3928;42.626;23.382;2022-11-09T10:39:27;32.58;;;24.35;;
7767;SDS011;3928;42.626;23.382;2022-11-09T10:42:04;31.30;;;24.20;;
7767;SDS011;3928;42.626;23.382;2022-11-09T10:44:31;30.65;;;24.05;;
7767;SDS011;3928;42.626;23.382;2022-11-09T10:47:07;33.30;;;23.48;;
7767;SDS011;3928;42.626;23.382;2022-11-09T10:49:35;29.08;;;24.05;;
7767;SDS011;3928;42.626;23.382;2022-11-09T10:52:03;30.42;;;22.90;;
7767;SDS011;3928;42.626;23.382;2022-11-09T10:54:30;29.60;;;22.38;;
7767;SDS011;3928;42.626;23.382;2022-11-09T10:57:09;27.40;;;22.33;;
7767;SDS011;3928;42.626;23.382;2022-11-09T10:59:40;30.42;;;22.02;;
7767;SDS011;3928;42.626;23.382;2022-11-09T11:05:27;29.48;;;22.73;;
7767;SDS011;3928;42.626;23.382;2022-11-09T11:07:56;31.17;;;21.77;;
7767;SDS011;3928;42.626;23.382;2022-11-09T11:10:28;25.63;;;21.92;;
7767;SDS011;3928;42.626;23.382;2022-11-09T11:15:48;29.05;;;22.90;;
7767;SDS011;3928;42.626;23.382;2022-11-09T11:18:18;29.65;;;20.70;;
7767;SDS011;3928;42.626;23.382;2022-11-09T11:20:47;26.45;;;21.08;;
7767;SDS011;3928;42.626;23.382;2022-11-09T11:23:29;25.20;;;20.80;;
7767;SDS011;3928;42.626;23.382;2022-11-09T11:26:04;26.38;;;21.38;;
7767;SDS011;3928;42.626;23.382;2022-11-09T11:28:43;25.30;;;20.48;;
7767;SDS011;3928;42.626;23.382;2022-11-09T11:31:14;24.55;;;20.83;;
7767;SDS011;3928;42.626;23.382;2022-11-09T11:33:44;24.25;;;19.65;;
7767;SDS011;3928;42.626;23.382;2022-11-09T11:36:14;25.27;;;20.02;;
7767;SDS011;3928;42.626;23.382;2022-11-09T11:38:50;26.58;;;19.40;;
7767;SDS011;3928;42.626;23.382;2022-11-09T11:41:29;26.75;;;20.95;;
7767;SDS011;3928;42.626;23.382;2022-11-09T11:44:16;29.73;;;21.10;;
7767;SDS011;3928;42.626;23.382;2022-11-09T11:46:55;29.13;;;20.88;;
7767;SDS011;3928;42.626;23.382;2022-11-09T11:49:32;35.85;;;26.83;;
7767;SDS011;3928;42.626;23.382;2022-11-09T11:52:12;33.20;;;24.33;;
7767;SDS011;3928;42.626;23.382;2022-11-09T11:54:49;23.90;;;20.25;;
7767;SDS011;3928;42.626;23.382;2022-11-09T11:57:31;73.63;;;60.20;;
7767;SDS011;3928;42.626;23.382;2022-11-09T12:00:08;26.23;;;21.23;;
7767;SDS011;3928;42.626;23.382;2022-11-09T12:08:50;24.40;;;20.52;;
7767;SDS011;3928;42.626;23.382;2022-11-09T12:11:32;21.73;;;19.17;;
7767;SDS011;3928;42.626;23.382;2022-11-09T12:14:11;21.60;;;18.13;;
7767;SDS011;3928;42.626;23.382;2022-11-09T12:16:46;22.98;;;19.00;;
7767;SDS011;3928;42.626;23.382;2022-11-09T12:19:22;21.10;;;17.88;;
7767;SDS011;3928;42.626;23.382;2022-11-09T12:22:05;28.13;;;19.55;;
7767;SDS011;3928;42.626;23.382;2022-11-09T12:24:38;29.58;;;20.48;;
7767;SDS011;3928;42.626;23.382;2022-11-09T12:27:17;32.35;;;20.98;;
7767;SDS011;3928;42.626;23.382;2022-11-09T12:29:56;24.33;;;19.13;;
7767;SDS011;3928;42.626;23.382;2022-11-09T12:32:30;30.58;;;19.92;;
7767;SDS011;3928;42.626;23.382;2022-11-09T12:35:13;21.70;;;18.73;;
7767;SDS011;3928;42.626;23.382;2022-11-09T12:37:49;25.90;;;18.98;;
7767;SDS011;3928;42.626;23.382;2022-11-09T12:40:21;26.05;;;19.40;;
7767;SDS011;3928;42.626;23.382;2022-11-09T12:42:50;22.33;;;19.40;;
7767;SDS011;3928;42.626;23.382;2022-11-09T12:45:23;28.10;;;20.95;;
7767;SDS011;3928;42.626;23.382;2022-11-09T12:47:54;25.52;;;20.17;;
7767;SDS011;3928;42.626;23.382;2022-11-09T12:50:24;24.15;;;18.15;;
7767;SDS011;3928;42.626;23.382;2022-11-09T12:52:54;28.60;;;19.75;;
7767;SDS011;3928;42.626;23.382;2022-11-09T12:55:22;21.33;;;19.05;;
7767;SDS011;3928;42.626;23.382;2022-11-09T12:57:54;21.38;;;19.08;;
7767;SDS011;3928;42.626;23.382;2022-11-09T13:03:17;25.38;;;18.95;;
7767;SDS011;3928;42.626;23.382;2022-11-09T13:05:48;23.75;;;20.10;;
7767;SDS011;3928;42.626;23.382;2022-11-09T13:08:34;24.52;;;19.13;;
7767;SDS011;3928;42.626;23.382;2022-11-09T13:11:07;24.33;;;19.58;;
7767;SDS011;3928;42.626;23.382;2022-11-09T13:13:45;25.35;;;19.13;;
7767;SDS011;3928;42.626;23.382;2022-11-09T13:19:01;23.85;;;19.77;;
7767;SDS011;3928;42.626;23.382;2022-11-09T13:21:38;25.73;;;19.17;;
7767;SDS011;3928;42.626;23.382;2022-11-09T13:27:34;31.77;;;20.67;;
7767;SDS011;3928;42.626;23.382;2022-11-09T13:38:42;60.92;;;47.22;;
7767;SDS011;3928;42.626;23.382;2022-11-09T13:44:15;21.80;;;19.45;;
7767;SDS011;3928;42.626;23.382;2022-11-09T13:46:44;24.30;;;19.35;;
7767;SDS011;3928;42.626;23.382;2022-11-09T13:49:33;20.90;;;18.05;;
7767;SDS011;3928;42.626;23.382;2022-11-09T13:57:57;30.38;;;23.85;;
7767;SDS011;3928;42.626;23.382;2022-11-09T14:00:29;29.67;;;23.90;;
7767;SDS011;3928;42.626;23.382;2022-11-09T14:02:59;28.35;;;22.98;;
7767;SDS011;3928;42.626;23.382;2022-11-09T14:05:29;30.17;;;23.00;;
7767;SDS011;3928;42.626;23.382;2022-11-09T14:07:58;35.35;;;27.00;;
7767;SDS011;3928;42.626;23.382;2022-11-09T14:10:37;31.48;;;26.20;;
7767;SDS011;3928;42.626;23.382;2022-11-09T14:13:34;33.95;;;26.55;;
7767;SDS011;3928;42.626;23.382;2022-11-09T14:16:17;39.40;;;27.17;;
7767;SDS011;3928;42.626;23.382;2022-11-09T14:19:00;40.85;;;29.38;;
7767;SDS011;3928;42.626;23.382;2022-11-09T14:21:41;31.10;;;27.48;;
7767;SDS011;3928;42.626;23.382;2022-11-09T14:24:13;34.72;;;26.92;;
7767;SDS011;3928;42.626;23.382;2022-11-09T14:27:04;34.35;;;26.50;;
7767;SDS011;3928;42.626;23.382;2022-11-09T14:29:46;34.95;;;26.85;;
7767;SDS011;3928;42.626;23.382;2022-11-09T14:32:22;37.53;;;28.80;;
7767;SDS011;3928;42.626;23.382;2022-11-09T14:35:08;41.97;;;30.13;;
7767;SDS011;3928;42.626;23.382;2022-11-09T14:37:54;42.63;;;29.50;;
7767;SDS011;3928;42.626;23.382;2022-11-09T14:40:23;42.80;;;28.55;;
7767;SDS011;3928;42.626;23.382;2022-11-09T14:42:52;40.50;;;27.70;;
7767;SDS011;3928;42.626;23.382;2022-11-09T14:45:21;38.45;;;27.83;;
7767;SDS011;3928;42.626;23.382;2022-11-09T14:47:51;44.65;;;28.98;;
7767;SDS011;3928;42.626;23.382;2022-11-09T14:50:21;39.70;;;27.65;;
7767;SDS011;3928;42.626;23.382;2022-11-09T14:52:50;45.60;;;28.63;;
7767;SDS011;3928;42.626;23.382;2022-11-09T14:55:20;40.53;;;27.65;;
7767;SDS011;3928;42.626;23.382;2022-11-09T14:57:48;39.30;;;26.95;;
7767;SDS011;3928;42.626;23.382;2022-11-09T15:00:22;46.10;;;28.30;;
7767;SDS011;3928;42.626;23.382;2022-11-09T15:02:53;37.10;;;27.15;;
7767;SDS011;3928;42.626;23.382;2022-11-09T15:05:31;43.00;;;29.10;;
7767;SDS011;3928;42.626;23.382;2022-11-09T15:08:03;46.78;;;28.45;;
7767;SDS011;3928;42.626;23.382;2022-11-09T15:10:31;44.08;;;27.98;;
7767;SDS011;3928;42.626;23.382;2022-11-09T15:12:59;43.85;;;30.85;;
7767;SDS011;3928;42.626;23.382;2022-11-09T15:15:29;42.03;;;27.88;;
7767;SDS011;3928;42.626;23.382;2022-11-09T15:17:59;44.90;;;29.23;;
7767;SDS011;3928;42.626;23.382;2022-11-09T15:20:31;40.13;;;26.67;;
7767;SDS011;3928;42.626;23.382;2022-11-09T15:23:00;41.28;;;26.20;;
7767;SDS011;3928;42.626;23.382;2022-11-09T15:25:29;42.65;;;27.20;;
7767;SDS011;3928;42.626;23.382;2022-11-09T15:31:08;40.33;;;27.92;;
7767;SDS011;3928;42.626;23.382;2022-11-09T15:33:43;43.47;;;28.55;;